Time;durP1;ratioP1;P1;durP2;ratioP2;P2;SDS_P1;SDS_P2;PMS_P1;PMS_P2;Temp;Humidity;BMP_temperature;BMP_pressure;BME280_temperature;BME280_humidity;BME280_pressure;Samples;Min_cycle;Max_cycle;Signal;HPM_P1;HPM_P2
2021/06/27 00:01:12;;;;;;;1.70;1.58;;;25.80;84.20;;;;;;5053627;28;20047;-79
2021/06/27 00:03:38;;;;;;;1.25;1.00;;;25.90;83.30;;;;;;5053338;28;20067;-79
2021/06/27 00:06:05;;;;;;;1.60;1.50;;;26.00;85.40;;;;;;5050617;28;20158;-76
2021/06/27 00:08:31;;;;;;;1.45;1.35;;;25.80;84.40;;;;;;5053784;28;20028;-81
2021/06/27 00:10:58;;;;;;;0.70;0.70;;;25.70;84.40;;;;;;5050253;28;20028;-84
2021/06/27 00:13:27;;;;;;;1.45;1.35;;;25.80;84.90;;;;;;5022761;28;20421;-82
2021/06/27 00:15:53;;;;;;;0.90;0.90;;;25.80;85.30;;;;;;5042107;28;20076;-81
2021/06/27 00:18:22;;;;;;;0.75;0.75;;;25.70;84.80;;;;;;5041307;28;20050;-80
2021/06/27 00:20:51;;;;;;;1.50;1.40;;;25.70;85.50;;;;;;5042459;28;20013;-77
2021/06/27 00:23:19;;;;;;;0.75;0.75;;;25.60;86.70;;;;;;5028112;28;20029;-82
2021/06/27 00:25:46;;;;;;;1.40;1.30;;;25.70;86.10;;;;;;5024222;28;20025;-83
2021/06/27 00:28:12;;;;;;;4.28;1.80;;;25.60;86.80;;;;;;5025717;28;20053;-81
2021/06/27 00:30:39;;;;;;;0.73;0.73;;;25.60;87.80;;;;;;5042924;28;20075;-80
2021/06/27 00:33:05;;;;;;;0.70;0.70;;;25.50;87.90;;;;;;5042132;28;20450;-81
2021/06/27 00:35:32;;;;;;;0.85;0.85;;;25.50;87.40;;;;;;5024260;28;20022;-81
2021/06/27 00:37:59;;;;;;;1.23;1.13;;;25.20;87.30;;;;;;5022757;28;20041;-81
2021/06/27 00:40:27;;;;;;;1.15;1.05;;;25.30;88.70;;;;;;5042023;28;20036;-82
2021/06/27 00:42:54;;;;;;;1.70;1.35;;;25.20;87.60;;;;;;5043251;28;20124;-81
2021/06/27 00:45:21;;;;;;;0.80;0.80;;;24.80;88.30;;;;;;5042613;28;20710;-79
2021/06/27 00:47:48;;;;;;;1.88;1.30;;;24.80;90.30;;;;;;5024565;28;20041;-81
2021/06/27 00:50:23;;;;;;;0.60;0.60;;;25.10;89.90;;;;;;5043603;28;20083;-83
2021/06/27 00:52:50;;;;;;;2.95;2.08;;;25.10;89.70;;;;;;5024922;28;20550;-81
2021/06/27 00:55:17;;;;;;;1.20;1.10;;;25.30;89.90;;;;;;5042081;28;20359;-80
2021/06/27 00:57:45;;;;;;;0.70;0.70;;;25.10;89.50;;;;;;5036295;28;20025;-85
2021/06/27 01:00:14;;;;;;;0.60;0.60;;;25.00;90.10;;;;;;5032686;28;20025;-84
2021/06/27 01:02:40;;;;;;;3.00;1.10;;;25.10;90.10;;;;;;5014890;28;20121;-84
2021/06/27 01:05:11;;;;;;;3.95;1.52;;;25.10;90.10;;;;;;5045050;28;20036;-83
2021/06/27 01:07:37;;;;;;;1.48;1.30;;;25.20;90.30;;;;;;5072441;28;20495;-77
2021/06/27 01:10:04;;;;;;;4.18;2.10;;;25.20;89.60;;;;;;5072616;28;20029;-83
2021/06/27 01:12:30;;;;;;;1.33;1.13;;;25.20;90.30;;;;;;5054156;28;20714;-79
2021/06/27 01:14:56;;;;;;;1.40;1.25;;;25.10;90.00;;;;;;5072516;28;20483;-78
2021/06/27 01:17:22;;;;;;;2.25;1.83;;;25.00;90.40;;;;;;5071693;28;20111;-81
2021/06/27 01:19:48;;;;;;;0.70;0.70;;;25.00;90.70;;;;;;5054222;28;20029;-79
2021/06/27 01:22:14;;;;;;;0.70;0.70;;;25.00;90.90;;;;;;5072493;28;20028;-78
2021/06/27 01:24:40;;;;;;;0.80;0.80;;;25.00;90.50;;;;;;5072671;28;20021;-84
2021/06/27 01:27:06;;;;;;;0.60;0.60;;;24.90;90.50;;;;;;5072592;28;20067;-82
2021/06/27 01:29:32;;;;;;;4.35;1.98;;;24.90;90.60;;;;;;5072270;28;20048;-82
2021/06/27 01:31:58;;;;;;;1.83;1.70;;;25.00;90.80;;;;;;5072140;28;20092;-84
2021/06/27 01:34:24;;;;;;;0.70;0.70;;;24.90;90.60;;;;;;5071885;28;20024;-80
2021/06/27 01:36:50;;;;;;;2.45;1.75;;;24.90;91.30;;;;;;5054047;28;20441;-82
2021/06/27 01:39:16;;;;;;;4.88;1.55;;;24.70;90.80;;;;;;5071991;28;20031;-79
2021/06/27 01:41:52;;;;;;;6.30;2.17;;;24.60;91.30;;;;;;5071904;28;20028;-81
2021/06/27 01:44:18;;;;;;;1.08;1.08;;;24.70;91.20;;;;;;5071744;28;20021;-79
2021/06/27 01:46:45;;;;;;;1.48;1.38;;;24.80;91.10;;;;;;5053735;28;20034;-76
2021/06/27 01:49:12;;;;;;;2.05;1.17;;;24.70;90.80;;;;;;5071380;28;20048;-82
2021/06/27 01:51:40;;;;;;;1.20;1.15;;;24.60;90.80;;;;;;5071882;28;20369;-81
2021/06/27 01:54:06;;;;;;;6.82;2.05;;;24.60;91.10;;;;;;5071788;28;20028;-83
2021/06/27 01:56:33;;;;;;;2.97;1.52;;;24.60;91.30;;;;;;5071568;28;20031;-86
2021/06/27 01:59:03;;;;;;;0.75;0.75;;;24.60;90.90;;;;;;5071760;28;20013;-84
2021/06/27 02:01:40;;;;;;;1.87;1.60;;;24.50;91.10;;;;;;5072116;28;20388;-83
2021/06/27 02:04:08;;;;;;;1.88;1.77;;;24.60;91.30;;;;;;5071679;28;20032;-84
2021/06/27 02:06:36;;;;;;;1.08;0.98;;;24.50;91.20;;;;;;5036909;28;20025;-82
2021/06/27 02:09:06;;;;;;;2.45;1.25;;;24.50;91.00;;;;;;5051687;28;20052;-80
2021/06/27 02:11:33;;;;;;;1.63;1.40;;;24.40;91.10;;;;;;5051921;28;20112;-79
2021/06/27 02:13:58;;;;;;;2.05;1.70;;;24.40;91.10;;;;;;5033656;28;20638;-83
2021/06/27 02:16:27;;;;;;;2.72;1.77;;;24.40;91.40;;;;;;5051380;28;20033;-83
2021/06/27 02:18:53;;;;;;;1.10;1.05;;;24.30;91.70;;;;;;5051980;28;20481;-82
2021/06/27 02:21:26;;;;;;;6.13;1.77;;;24.20;91.70;;;;;;5052102;28;20029;-82
2021/06/27 02:23:53;;;;;;;1.33;1.27;;;24.20;92.00;;;;;;5050892;28;20061;-82
2021/06/27 02:26:20;;;;;;;0.73;0.73;;;24.40;91.60;;;;;;5051518;28;20028;-80
2021/06/27 02:28:47;;;;;;;0.98;0.98;;;24.30;91.60;;;;;;5051105;28;20033;-83
2021/06/27 02:31:13;;;;;;;0.80;0.80;;;24.40;91.90;;;;;;5032926;28;20029;-78
2021/06/27 02:33:40;;;;;;;2.35;2.15;;;24.30;91.70;;;;;;5048397;28;20451;-80
2021/06/27 02:36:06;;;;;;;0.85;0.82;;;24.30;91.30;;;;;;5033388;28;20047;-79
2021/06/27 02:38:33;;;;;;;0.60;0.60;;;24.30;91.80;;;;;;5050790;28;20017;-82
2021/06/27 02:40:59;;;;;;;1.15;1.08;;;24.30;91.50;;;;;;5033081;28;20114;-85
2021/06/27 02:43:25;;;;;;;0.82;0.82;;;24.30;91.50;;;;;;5032740;28;20385;-82
2021/06/27 02:45:52;;;;;;;0.70;0.70;;;24.30;91.60;;;;;;5051022;28;20431;-81
2021/06/27 02:48:17;;;;;;;0.70;0.70;;;24.30;91.70;;;;;;5050860;28;20045;-77
2021/06/27 02:50:43;;;;;;;0.90;0.90;;;24.20;91.60;;;;;;5051414;28;20081;-83
2021/06/27 02:53:10;;;;;;;0.77;0.77;;;24.20;92.20;;;;;;5050931;28;20506;-80
2021/06/27 02:55:36;;;;;;;0.70;0.70;;;24.20;91.90;;;;;;5050783;28;20400;-82
2021/06/27 02:58:03;;;;;;;5.95;1.88;;;24.30;92.20;;;;;;5051324;28;20052;-80
2021/06/27 03:00:29;;;;;;;1.13;1.02;;;24.20;92.30;;;;;;5051009;28;20365;-81
2021/06/27 03:02:56;;;;;;;0.90;0.90;;;24.20;92.00;;;;;;5050650;28;20029;-79
2021/06/27 03:05:22;;;;;;;2.50;2.30;;;24.20;92.00;;;;;;5056780;28;20439;-83
2021/06/27 03:07:48;;;;;;;1.90;1.80;;;24.20;92.10;;;;;;5070894;28;20490;-83
2021/06/27 03:10:16;;;;;;;0.70;0.70;;;24.20;92.10;;;;;;5071249;28;20088;-84
2021/06/27 03:12:44;;;;;;;0.70;0.70;;;24.10;92.60;;;;;;5070608;28;20376;-83
2021/06/27 03:15:12;;;;;;;4.88;2.25;;;24.00;92.70;;;;;;5071143;28;20085;-83
2021/06/27 03:17:38;;;;;;;0.73;0.73;;;24.00;93.20;;;;;;5070802;28;20156;-82
2021/06/27 03:20:09;;;;;;;2.30;1.45;;;24.00;92.90;;;;;;5071312;28;20110;-79
2021/06/27 03:22:36;;;;;;;0.70;0.70;;;24.00;92.80;;;;;;5070955;28;20029;-78
2021/06/27 03:25:03;;;;;;;1.73;1.58;;;24.00;92.90;;;;;;5052782;28;20111;-80
2021/06/27 03:27:30;;;;;;;3.90;1.67;;;24.00;93.10;;;;;;5070906;28;20025;-80
2021/06/27 03:29:56;;;;;;;1.33;1.23;;;24.00;92.90;;;;;;5052601;28;20025;-78
2021/06/27 03:32:21;;;;;;;2.25;1.98;;;24.00;92.80;;;;;;5070490;28;20045;-79
2021/06/27 03:34:47;;;;;;;0.70;0.70;;;24.00;93.00;;;;;;5070740;28;20031;-82
2021/06/27 03:37:13;;;;;;;0.70;0.70;;;24.00;93.20;;;;;;5053006;28;20036;-85
2021/06/27 03:39:39;;;;;;;0.70;0.70;;;24.00;92.90;;;;;;5072241;28;20468;-82
2021/06/27 03:42:05;;;;;;;1.58;1.40;;;23.90;93.10;;;;;;5074463;28;20353;-86
2021/06/27 03:44:31;;;;;;;3.28;2.13;;;24.00;93.40;;;;;;5074206;28;20384;-86
2021/06/27 03:46:57;;;;;;;0.68;0.68;;;23.90;93.50;;;;;;5074223;28;20492;-80
2021/06/27 03:49:22;;;;;;;0.77;0.77;;;24.00;93.50;;;;;;5073876;28;20046;-84
2021/06/27 03:51:48;;;;;;;1.13;1.08;;;23.90;93.50;;;;;;5074213;28;20496;-81
2021/06/27 03:54:16;;;;;;;0.80;0.80;;;24.00;93.50;;;;;;5074113;28;20016;-79
2021/06/27 03:56:42;;;;;;;0.70;0.70;;;24.00;93.50;;;;;;5056166;28;20047;-84
2021/06/27 03:59:08;;;;;;;0.90;0.90;;;24.10;93.30;;;;;;5053966;28;20115;-84
2021/06/27 04:01:34;;;;;;;1.13;1.08;;;23.90;93.90;;;;;;5052934;28;20048;-82
2021/06/27 04:04:01;;;;;;;1.50;1.40;;;24.10;94.00;;;;;;5054217;28;20067;-84
2021/06/27 04:06:27;;;;;;;0.80;0.80;;;24.20;93.70;;;;;;5054194;28;20032;-82
2021/06/27 04:08:53;;;;;;;0.75;0.75;;;24.20;93.50;;;;;;5053969;28;20029;-82
2021/06/27 04:11:19;;;;;;;3.20;2.75;;;24.30;93.70;;;;;;5053451;28;20112;-82
2021/06/27 04:13:44;;;;;;;1.90;1.73;;;24.40;93.70;;;;;;5053838;28;20036;-87
2021/06/27 04:16:12;;;;;;;3.42;2.15;;;24.40;93.30;;;;;;5053913;28;20528;-85
2021/06/27 04:18:38;;;;;;;2.42;1.25;;;24.40;93.90;;;;;;5053779;28;20376;-86
2021/06/27 04:21:05;;;;;;;0.70;0.70;;;24.40;94.30;;;;;;5053719;28;20469;-85
2021/06/27 04:23:32;;;;;;;4.45;3.38;;;24.40;94.10;;;;;;5053413;28;20013;-82
2021/06/27 04:25:58;;;;;;;1.75;1.65;;;24.50;94.00;;;;;;5053424;28;20028;-83
2021/06/27 04:28:24;;;;;;;10.25;3.08;;;24.40;93.60;;;;;;5053045;28;20028;-82
2021/06/27 04:30:50;;;;;;;1.02;1.02;;;24.50;93.70;;;;;;5053444;28;20524;-83
2021/06/27 04:33:16;;;;;;;1.27;1.17;;;24.50;93.40;;;;;;5053549;28;20040;-80
2021/06/27 04:35:42;;;;;;;2.03;1.58;;;24.40;93.40;;;;;;5053377;28;20021;-81
2021/06/27 04:38:10;;;;;;;1.73;1.63;;;24.20;93.70;;;;;;5053443;28;20473;-81
2021/06/27 04:40:37;;;;;;;1.15;1.10;;;24.30;93.50;;;;;;5035665;28;20098;-83
2021/06/27 04:43:04;;;;;;;6.05;1.38;;;24.40;93.30;;;;;;5035188;28;20025;-82
2021/06/27 04:45:30;;;;;;;2.97;1.23;;;24.50;93.30;;;;;;5052735;28;20476;-82
2021/06/27 04:47:55;;;;;;;7.32;2.05;;;24.60;93.50;;;;;;5053285;28;20475;-82
2021/06/27 04:50:21;;;;;;;0.70;0.70;;;24.40;93.30;;;;;;5052992;28;20029;-83
2021/06/27 04:52:53;;;;;;;0.60;0.60;;;24.40;93.20;;;;;;5053268;28;20373;-81
2021/06/27 04:55:20;;;;;;;3.22;2.45;;;24.50;93.30;;;;;;5052956;28;20033;-82
2021/06/27 04:57:46;;;;;;;0.70;0.70;;;24.60;93.40;;;;;;5052679;28;20057;-82
2021/06/27 05:00:13;;;;;;;0.60;0.60;;;24.60;93.70;;;;;;5052708;28;20017;-81
2021/06/27 05:02:39;;;;;;;1.17;1.08;;;24.80;93.50;;;;;;5035288;28;20044;-83
2021/06/27 05:05:06;;;;;;;0.80;0.80;;;24.80;93.40;;;;;;5044044;28;20423;-83
2021/06/27 05:07:33;;;;;;;0.75;0.75;;;24.80;93.30;;;;;;5055117;28;20483;-83
2021/06/27 05:09:59;;;;;;;1.13;1.02;;;24.80;93.40;;;;;;5054828;28;20399;-82
2021/06/27 05:12:25;;;;;;;1.00;1.00;;;24.70;93.60;;;;;;5072271;28;20399;-80
2021/06/27 05:14:51;;;;;;;3.42;1.88;;;24.70;93.90;;;;;;5072323;28;20066;-81
2021/06/27 05:17:17;;;;;;;1.83;1.73;;;24.60;93.70;;;;;;5053899;28;20036;-82
2021/06/27 05:19:43;;;;;;;0.80;0.80;;;24.60;93.80;;;;;;5072049;28;20023;-82
2021/06/27 05:22:09;;;;;;;2.78;2.05;;;24.60;93.90;;;;;;5072711;28;20043;-84
2021/06/27 05:24:34;;;;;;;0.98;0.98;;;24.70;94.00;;;;;;5054246;28;20035;-82
2021/06/27 05:27:00;;;;;;;2.25;1.73;;;24.80;93.90;;;;;;5072220;28;20476;-83
2021/06/27 05:29:26;;;;;;;0.82;0.82;;;24.90;94.30;;;;;;5072092;28;20033;-84
2021/06/27 05:31:52;;;;;;;1.15;1.05;;;25.00;94.10;;;;;;5072626;28;20104;-86
2021/06/27 05:34:17;;;;;;;0.70;0.70;;;25.00;94.50;;;;;;5072299;28;20028;-85
2021/06/27 05:36:43;;;;;;;0.80;0.80;;;25.10;94.50;;;;;;5071671;28;20025;-83
2021/06/27 05:39:10;;;;;;;2.22;1.88;;;25.20;94.80;;;;;;5053910;28;20035;-84
2021/06/27 05:41:38;;;;;;;2.22;1.90;;;25.00;94.80;;;;;;5072070;28;20020;-82
2021/06/27 05:44:07;;;;;;;2.33;2.00;;;25.20;95.00;;;;;;5053770;28;20106;-80
2021/06/27 05:46:34;;;;;;;1.97;1.77;;;25.40;94.80;;;;;;5071874;28;20095;-80
2021/06/27 05:49:02;;;;;;;0.73;0.73;;;25.50;94.30;;;;;;5071902;28;20273;-81
2021/06/27 05:51:28;;;;;;;0.75;0.70;;;25.60;94.50;;;;;;5071537;28;20448;-84
2021/06/27 05:53:54;;;;;;;20.10;3.53;;;25.70;94.20;;;;;;5071537;28;20149;-86
2021/06/27 05:56:20;;;;;;;1.45;1.35;;;25.60;94.40;;;;;;5053750;28;20027;-81
2021/06/27 05:58:47;;;;;;;1.08;0.98;;;25.60;94.60;;;;;;5071673;28;20066;-82
2021/06/27 06:01:15;;;;;;;1.88;1.70;;;25.60;94.60;;;;;;5071578;28;20021;-85
2021/06/27 06:03:41;;;;;;;0.80;0.80;;;25.70;94.70;;;;;;5071773;28;20036;-84
2021/06/27 06:06:10;;;;;;;0.82;0.82;;;25.80;94.60;;;;;;5055154;28;20017;-83
2021/06/27 06:08:36;;;;;;;0.60;0.60;;;25.80;94.50;;;;;;5051339;28;20032;-85
2021/06/27 06:11:03;;;;;;;2.88;1.73;;;26.00;94.40;;;;;;5033701;28;20025;-81
2021/06/27 06:13:28;;;;;;;0.60;0.60;;;26.10;94.30;;;;;;5050976;28;20469;-82
2021/06/27 06:15:54;;;;;;;1.63;1.17;;;26.20;94.00;;;;;;5033401;28;20547;-83
2021/06/27 06:18:20;;;;;;;0.60;0.60;;;26.30;94.00;;;;;;5051906;28;20385;-84
2021/06/27 06:20:46;;;;;;;1.77;1.65;;;26.30;93.90;;;;;;5051142;28;20472;-82
2021/06/27 06:23:12;;;;;;;0.75;0.75;;;26.40;93.90;;;;;;5051145;28;20029;-84
2021/06/27 06:25:38;;;;;;;0.65;0.63;;;26.50;93.70;;;;;;5033448;28;20473;-85
2021/06/27 06:28:04;;;;;;;2.28;2.08;;;26.50;93.80;;;;;;5033181;28;20025;-84
2021/06/27 06:30:30;;;;;;;0.60;0.60;;;26.30;94.10;;;;;;5051154;28;20025;-81
2021/06/27 06:32:55;;;;;;;0.60;0.60;;;26.40;94.20;;;;;;5032971;28;20048;-80
2021/06/27 06:35:21;;;;;;;1.40;1.30;;;26.40;94.40;;;;;;5051381;28;20116;-82
2021/06/27 06:37:47;;;;;;;1.15;1.05;;;26.50;94.20;;;;;;5050872;28;20488;-83
2021/06/27 06:40:13;;;;;;;1.00;0.98;;;26.70;94.40;;;;;;5050852;28;20388;-78
2021/06/27 06:42:39;;;;;;;1.30;1.20;;;26.80;94.40;;;;;;5050847;28;20068;-81
2021/06/27 06:45:05;;;;;;;1.27;1.17;;;26.80;94.20;;;;;;5050988;28;20043;-79
2021/06/27 06:47:31;;;;;;;1.80;1.50;;;26.90;94.10;;;;;;5033136;28;20048;-83
2021/06/27 06:49:57;;;;;;;2.53;2.33;;;27.00;94.10;;;;;;5050761;28;20041;-81
2021/06/27 06:52:23;;;;;;;0.80;0.80;;;27.20;94.10;;;;;;5050660;28;20439;-79
2021/06/27 06:54:49;;;;;;;0.55;0.55;;;27.20;93.90;;;;;;5051174;28;20469;-81
2021/06/27 06:57:16;;;;;;;0.57;0.57;;;27.20;93.80;;;;;;5050966;28;20021;-77
2021/06/27 06:59:42;;;;;;;0.88;0.82;;;27.30;93.80;;;;;;5032691;28;20032;-80
2021/06/27 07:02:08;;;;;;;1.75;1.38;;;27.20;93.60;;;;;;5033106;28;20025;-79
2021/06/27 07:04:34;;;;;;;0.63;0.63;;;27.30;94.00;;;;;;5052759;28;20029;-85
2021/06/27 07:07:00;;;;;;;3.08;1.38;;;27.30;93.80;;;;;;5070316;28;20436;-80
2021/06/27 07:09:26;;;;;;;0.45;0.45;;;27.40;93.90;;;;;;5053317;28;20037;-80
2021/06/27 07:11:51;;;;;;;0.47;0.47;;;27.40;93.70;;;;;;5052921;28;20032;-83
2021/06/27 07:14:17;;;;;;;1.88;1.45;;;27.40;93.80;;;;;;5072048;28;20020;-85
2021/06/27 07:16:43;;;;;;;0.60;0.60;;;27.40;93.70;;;;;;5074175;28;20361;-86
2021/06/27 07:19:09;;;;;;;0.70;0.70;;;27.50;93.60;;;;;;5056692;28;20032;-79
2021/06/27 07:21:35;;;;;;;3.25;1.02;;;27.50;93.60;;;;;;5056840;28;20372;-78
2021/06/27 07:24:01;;;;;;;4.18;2.45;;;27.50;93.50;;;;;;5022652;28;20060;-80
2021/06/27 07:26:26;;;;;;;8.63;4.75;;;27.60;93.30;;;;;;5034385;28;20537;-80
2021/06/27 07:28:52;;;;;;;3.70;3.33;;;27.60;93.30;;;;;;5034457;28;20035;-81
2021/06/27 07:31:18;;;;;;;5.13;2.30;;;27.70;93.20;;;;;;5034032;28;20088;-83
2021/06/27 07:33:44;;;;;;;4.63;3.72;;;27.70;92.90;;;;;;5034255;28;20523;-79
2021/06/27 07:36:10;;;;;;;2.80;2.28;;;27.80;92.60;;;;;;5034127;28;20022;-81
2021/06/27 07:38:36;;;;;;;8.20;1.73;;;28.00;92.40;;;;;;5034204;28;20033;-78
2021/06/27 07:41:01;;;;;;;2.60;2.38;;;28.10;92.20;;;;;;5034586;28;20046;-85
2021/06/27 07:43:28;;;;;;;7.03;3.05;;;27.90;91.80;;;;;;5034395;28;20022;-82
2021/06/27 07:45:54;;;;;;;1.55;0.88;;;27.90;91.90;;;;;;5033914;28;20358;-79
2021/06/27 07:48:20;;;;;;;0.95;0.82;;;27.80;91.50;;;;;;5034205;28;20517;-84
2021/06/27 07:50:46;;;;;;;0.70;0.70;;;27.80;91.60;;;;;;5021416;28;20098;-84
2021/06/27 07:53:12;;;;;;;0.85;0.77;;;28.00;91.70;;;;;;5044289;28;20056;-84
2021/06/27 07:55:38;;;;;;;0.40;0.40;;;28.00;91.70;;;;;;5020998;28;20025;-80
2021/06/27 07:58:03;;;;;;;1.13;1.02;;;28.10;91.40;;;;;;5041455;28;20448;-81
2021/06/27 08:00:30;;;;;;;2.42;2.00;;;28.30;91.10;;;;;;5044601;28;20075;-82
2021/06/27 08:02:58;;;;;;;6.32;2.40;;;28.40;91.10;;;;;;5024982;28;20037;-83
2021/06/27 08:05:24;;;;;;;1.02;0.82;;;28.40;90.60;;;;;;5046495;28;20400;-81
2021/06/27 08:07:49;;;;;;;3.17;1.45;;;28.40;90.10;;;;;;5044337;28;20634;-81
2021/06/27 08:10:16;;;;;;;0.45;0.45;;;28.20;89.40;;;;;;5044406;28;20028;-83
2021/06/27 08:12:42;;;;;;;1.10;1.02;;;28.10;89.80;;;;;;5023466;28;20077;-80
2021/06/27 08:15:10;;;;;;;1.10;0.93;;;28.10;89.60;;;;;;5033744;28;20063;-83
2021/06/27 08:17:36;;;;;;;0.98;0.95;;;28.20;89.70;;;;;;5033853;28;20033;-83
2021/06/27 08:20:06;;;;;;;1.20;1.10;;;28.20;89.40;;;;;;5015931;28;20025;-78
2021/06/27 08:22:32;;;;;;;1.92;0.75;;;28.40;88.70;;;;;;5033619;28;20028;-81
2021/06/27 08:24:57;;;;;;;6.72;1.90;;;28.40;87.30;;;;;;5033117;28;20018;-82
2021/06/27 08:27:23;;;;;;;1.83;1.35;;;28.50;87.70;;;;;;5033469;28;20021;-80
2021/06/27 08:29:49;;;;;;;0.45;0.45;;;28.60;88.40;;;;;;5033532;28;20024;-77
2021/06/27 08:32:14;;;;;;;2.90;1.88;;;28.70;89.30;;;;;;5033386;28;20489;-79
2021/06/27 08:34:40;;;;;;;0.55;0.55;;;28.70;90.40;;;;;;5033129;28;20508;-80
2021/06/27 08:37:06;;;;;;;0.68;0.68;;;28.70;90.30;;;;;;5033371;28;20495;-79
2021/06/27 08:39:32;;;;;;;1.20;0.90;;;28.70;88.90;;;;;;5033042;28;20392;-80
2021/06/27 08:41:57;;;;;;;0.63;0.63;;;28.60;90.00;;;;;;5015263;28;20022;-79
2021/06/27 08:44:23;;;;;;;0.90;0.85;;;28.50;89.80;;;;;;5015547;28;20021;-80
2021/06/27 08:46:50;;;;;;;0.57;0.57;;;28.30;90.20;;;;;;5032722;28;20037;-79
2021/06/27 08:49:19;;;;;;;1.50;1.15;;;28.40;89.80;;;;;;5014921;28;20056;-77
2021/06/27 08:51:47;;;;;;;1.30;1.17;;;28.70;89.50;;;;;;5033084;28;20083;-82
2021/06/27 08:54:13;;;;;;;1.15;0.93;;;28.90;90.20;;;;;;5015722;28;20385;-83
2021/06/27 08:56:39;;;;;;;2.75;1.40;;;28.90;88.80;;;;;;5033464;28;20469;-81
2021/06/27 08:59:06;;;;;;;2.20;1.33;;;29.00;88.40;;;;;;5032868;28;20155;-79
2021/06/27 09:01:32;;;;;;;5.32;2.40;;;28.90;87.90;;;;;;5032477;28;20107;-77
2021/06/27 09:03:58;;;;;;;2.63;1.70;;;28.80;87.80;;;;;;5015142;28;20053;-84
2021/06/27 09:06:33;;;;;;;3.30;1.27;;;28.80;88.50;;;;;;5061038;28;20032;-77
2021/06/27 09:09:13;;;;;;;1.48;1.13;;;28.80;88.80;;;;;;5072837;28;20226;-82
2021/06/27 09:12:02;;;;;;;0.93;0.85;;;28.90;88.60;;;;;;5072182;28;20029;-78
2021/06/27 09:14:48;;;;;;;1.00;0.60;;;29.20;88.30;;;;;;5059234;28;20040;-85
2021/06/27 09:17:19;;;;;;;4.72;2.42;;;29.40;87.90;;;;;;5072518;28;20033;-78
2021/06/27 09:20:08;;;;;;;2.28;2.08;;;29.50;87.00;;;;;;5072489;28;20024;-77
2021/06/27 09:22:42;;;;;;;10.32;2.58;;;29.70;86.80;;;;;;5072084;28;20012;-76
2021/06/27 09:25:16;;;;;;;3.00;1.75;;;29.60;85.80;;;;;;5072264;28;20024;-76
2021/06/27 09:27:43;;;;;;;0.47;0.47;;;29.60;85.70;;;;;;5072125;28;20027;-78
2021/06/27 09:30:20;;;;;;;3.50;1.80;;;29.80;85.90;;;;;;5072011;28;20060;-77
2021/06/27 09:32:51;;;;;;;0.90;0.75;;;30.10;85.20;;;;;;5054051;28;20740;-78
2021/06/27 09:35:55;;;;;;;0.50;0.47;;;30.30;84.00;;;;;;5054251;28;20436;-75
2021/06/27 09:38:31;;;;;;;2.47;1.05;;;30.40;84.60;;;;;;5071534;28;20118;-81
2021/06/27 09:41:04;;;;;;;0.88;0.80;;;30.90;83.20;;;;;;5071932;28;20024;-81
2021/06/27 09:43:32;;;;;;;4.43;3.10;;;30.90;83.20;;;;;;5071670;28;20125;-81
2021/06/27 09:46:11;;;;;;;3.13;1.75;;;31.00;82.00;;;;;;5071479;28;20024;-81
2021/06/27 09:48:54;;;;;;;0.35;0.28;;;31.00;81.80;;;;;;5071808;28;20045;-80
2021/06/27 09:51:23;;;;;;;0.50;0.47;;;30.80;80.80;;;;;;5071753;28;20021;-79
2021/06/27 09:53:49;;;;;;;0.75;0.65;;;30.70;81.10;;;;;;5053726;28;20116;-81
2021/06/27 09:56:16;;;;;;;0.55;0.52;;;30.70;81.70;;;;;;5071735;28;20021;-81
2021/06/27 09:59:01;;;;;;;1.60;1.50;;;30.90;80.10;;;;;;5071331;28;20024;-79
2021/06/27 10:01:31;;;;;;;0.60;0.60;;;31.30;79.60;;;;;;5053827;28;20020;-87
2021/06/27 10:03:58;;;;;;;;;;;31.20;80.60;;;;;;5053741;28;20369;-83
2021/06/27 10:06:53;;;;;;;3.20;0.88;;;31.20;80.70;;;;;;5059459;28;19905;-79
2021/06/27 10:09:21;;;;;;;1.00;0.80;;;31.20;78.40;;;;;;5045989;28;20080;-77
2021/06/27 10:12:05;;;;;;;0.57;0.57;;;31.40;79.10;;;;;;5024080;28;20492;-82
2021/06/27 10:14:39;;;;;;;1.50;1.30;;;31.30;76.10;;;;;;5050799;28;20434;-79
2021/06/27 10:17:07;;;;;;;0.85;0.80;;;31.30;75.90;;;;;;5038070;28;20109;-76
2021/06/27 10:19:34;;;;;;;0.60;0.55;;;31.20;76.80;;;;;;5040417;28;20099;-78
2021/06/27 10:22:02;;;;;;;1.15;1.05;;;31.50;75.30;;;;;;5041785;28;20546;-79
2021/06/27 10:24:29;;;;;;;0.30;0.30;;;31.40;77.10;;;;;;5014009;28;20025;-83
2021/06/27 10:26:55;;;;;;;1.00;0.95;;;31.20;75.40;;;;;;5013913;28;20029;-78
2021/06/27 10:29:22;;;;;;;1.15;0.85;;;31.30;76.10;;;;;;5035840;28;20025;-83
2021/06/27 10:31:51;;;;;;;1.00;0.60;;;31.50;75.40;;;;;;5038392;28;20040;-81
2021/06/27 10:34:18;;;;;;;8.63;0.80;;;31.80;73.90;;;;;;5020614;28;20117;-78
2021/06/27 10:36:52;;;;;;;1.10;0.73;;;31.70;73.50;;;;;;5040999;28;20027;-83
2021/06/27 10:39:20;;;;;;;2.60;1.42;;;31.60;73.90;;;;;;5029567;28;20033;-80
2021/06/27 10:41:54;;;;;;;1.23;0.57;;;31.50;73.60;;;;;;5051195;28;20108;-88
2021/06/27 10:44:23;;;;;;;0.43;0.43;;;31.80;74.10;;;;;;5051014;28;20021;-80
2021/06/27 10:46:51;;;;;;;0.73;0.45;;;32.00;73.30;;;;;;5051421;28;20032;-78
2021/06/27 10:49:32;;;;;;;6.85;3.80;;;32.00;73.00;;;;;;5053590;28;20404;-76
2021/06/27 10:52:24;;;;;;;5.20;2.80;;;32.40;73.60;;;;;;5055364;28;20037;-81
2021/06/27 10:55:18;;;;;;;1.70;1.25;;;32.60;73.10;;;;;;5053048;28;20029;-77
2021/06/27 10:57:53;;;;;;;2.30;1.20;;;32.70;71.40;;;;;;5054580;28;20033;-81
2021/06/27 11:00:19;;;;;;;1.15;1.02;;;32.20;69.40;;;;;;5054960;28;20415;-80
2021/06/27 11:02:45;;;;;;;2.58;1.75;;;31.90;71.50;;;;;;5054814;28;20037;-82
2021/06/27 11:05:29;;;;;;;1.95;1.45;;;32.10;70.60;;;;;;5054986;28;20028;-81
2021/06/27 11:07:59;;;;;;;1.73;1.27;;;32.30;71.80;;;;;;5043653;28;20388;-81
2021/06/27 11:10:25;;;;;;;1.02;0.98;;;32.10;71.00;;;;;;5045534;28;20080;-81
2021/06/27 11:13:07;;;;;;;0.40;0.40;;;31.90;71.10;;;;;;5045130;28;20422;-81
2021/06/27 11:15:39;;;;;;;0.80;0.60;;;31.80;70.60;;;;;;5054757;28;20120;-83
2021/06/27 11:18:07;;;;;;;0.52;0.40;;;31.70;72.40;;;;;;5036543;28;20067;-80
2021/06/27 11:20:54;;;;;;;0.52;0.52;;;32.20;71.70;;;;;;5036282;28;20039;-85
2021/06/27 11:23:53;;;;;;;1.05;0.75;;;32.40;70.40;;;;;;5016049;28;20036;-81
2021/06/27 11:26:55;;;;;;;1.02;0.88;;;32.70;71.00;;;;;;5026421;28;20017;-82
2021/06/27 11:29:20;;;;;;;2.53;1.38;;;32.70;71.60;;;;;;5016006;28;20064;-82
2021/06/27 11:31:53;;;;;;;4.30;1.13;;;32.70;69.10;;;;;;5048332;28;20147;-88
2021/06/27 11:37:17;;;;;;;0.98;0.60;;;32.60;68.80;;;;;;5054394;28;20067;-85
2021/06/27 11:40:08;;;;;;;0.45;0.40;;;33.00;68.40;;;;;;5053560;28;20018;-79
2021/06/27 11:42:33;;;;;;;0.85;0.85;;;33.20;68.50;;;;;;5052872;28;20022;-80
2021/06/27 11:45:06;;;;;;;0.85;0.77;;;33.40;69.20;;;;;;5053644;28;20029;-80
2021/06/27 11:47:36;;;;;;;4.95;2.88;;;32.80;67.90;;;;;;5053542;28;20108;-85
2021/06/27 11:50:17;;;;;;;;;;;32.60;69.50;;;;;;5054311;28;20378;-82
2021/06/27 11:52:44;;;;;;;3.80;2.10;;;32.40;69.40;;;;;;5036094;28;19920;-83
2021/06/27 11:55:10;;;;;;;3.60;3.25;;;32.10;70.80;;;;;;5035690;28;20032;-83
2021/06/27 11:57:55;;;;;;;6.85;3.08;;;32.00;70.30;;;;;;5052898;28;20100;-87
2021/06/27 12:00:38;;;;;;;3.97;2.28;;;32.50;70.70;;;;;;5034735;28;20476;-81
2021/06/27 12:03:08;;;;;;;1.88;1.38;;;33.00;67.80;;;;;;5051947;28;20127;-80
2021/06/27 12:05:35;;;;;;;2.75;1.45;;;33.50;67.00;;;;;;5038897;28;20053;-79
2021/06/27 12:08:11;;;;;;;1.17;1.08;;;33.10;66.80;;;;;;5055223;28;20029;-84
2021/06/27 12:10:39;;;;;;;2.25;1.58;;;32.90;66.50;;;;;;5073108;28;20472;-79
2021/06/27 12:13:09;;;;;;;2.55;1.85;;;32.80;66.50;;;;;;5073506;28;20389;-87
2021/06/27 12:15:47;;;;;;;0.50;0.50;;;32.60;66.90;;;;;;5073533;28;20042;-81
2021/06/27 12:18:19;;;;;;;0.57;0.57;;;32.30;67.70;;;;;;5055711;28;20384;-86
2021/06/27 12:21:03;;;;;;;0.82;0.75;;;31.80;69.10;;;;;;5072889;28;20029;-92
2021/06/27 12:23:29;;;;;;;0.30;0.30;;;31.80;69.80;;;;;;5073586;28;20028;-87
2021/06/27 12:26:33;;;;;;;;;;;;;;;;;;;;;
2021/06/27 12:29:23;;;;;;;0.20;0.20;;;31.60;69.90;;;;;;5073126;28;20055;-83
2021/06/27 12:31:49;;;;;;;0.73;0.73;;;31.60;70.50;;;;;;5065678;28;20032;-81
2021/06/27 12:34:21;;;;;;;0.35;0.35;;;31.70;69.90;;;;;;5028109;28;20094;-85
2021/06/27 12:36:50;;;;;;;0.32;0.30;;;31.80;68.60;;;;;;5053916;28;20029;-87
2021/06/27 12:39:21;;;;;;;1.58;0.95;;;32.30;68.90;;;;;;5033150;28;20029;-83
2021/06/27 12:41:47;;;;;;;1.42;1.33;;;32.70;68.30;;;;;;5049212;28;20040;-85
2021/06/27 12:44:15;;;;;;;5.20;1.52;;;32.50;69.40;;;;;;5053002;28;20102;-89
2021/06/27 12:46:49;;;;;;;3.38;2.50;;;32.90;69.70;;;;;;5053136;28;20384;-84
2021/06/27 12:49:16;;;;;;;4.43;2.40;;;32.40;69.00;;;;;;5031634;28;20053;-84
2021/06/27 12:52:02;;;;;;;2.35;1.92;;;32.10;70.60;;;;;;5033371;28;20025;-79
2021/06/27 12:54:33;;;;;;;1.83;1.33;;;32.30;69.60;;;;;;5032712;28;20025;-77
2021/06/27 12:57:04;;;;;;;1.00;0.77;;;32.50;69.30;;;;;;5031717;28;20057;-81
2021/06/27 12:59:36;;;;;;;1.20;1.00;;;32.90;69.40;;;;;;5029193;28;20121;-82